Time;durP1;ratioP1;P1;durP2;ratioP2;P2;SDS_P1;SDS_P2;PMS_P1;PMS_P2;Temp;Humidity;BMP_temperature;BMP_pressure;BME280_temperature;BME280_humidity;BME280_pressure;Samples;Min_cycle;Max_cycle;Signal;HPM_P1;HPM_P2
2022/08/07 00:01:22;;;;;;;10.10;5.70;;;;;;;;;;4963390;28;20049;-90
2022/08/07 00:04:09;;;;;;;10.68;6.35;;;;;;;;;;4978212;28;20145;-90
2022/08/07 00:07:01;;;;;;;10.20;5.60;;;;;;;;;;4956494;28;20493;-84
2022/08/07 00:09:35;;;;;;;10.48;6.07;;;;;;;;;;4965072;28;20074;-84
2022/08/07 00:12:04;;;;;;;10.40;6.03;;;;;;;;;;4975177;28;20117;-84
2022/08/07 00:14:37;;;;;;;11.43;6.05;;;;;;;;;;4959141;28;20382;-84
2022/08/07 00:17:15;;;;;;;11.07;5.82;;;;;;;;;;4976228;28;20043;-83
2022/08/07 00:19:44;;;;;;;10.73;6.43;;;;;;;;;;4958134;28;20082;-83
2022/08/07 00:22:30;;;;;;;11.85;5.88;;;;;;;;;;4961612;28;20042;-84
2022/08/07 00:25:23;;;;;;;10.70;6.07;;;;;;;;;;4974409;28;20034;-84
2022/08/07 00:27:53;;;;;;;11.85;6.03;;;;;;;;;;4959115;28;20090;-84
2022/08/07 00:30:24;;;;;;;9.70;6.10;;;;;;;;;;4974236;28;20042;-84
2022/08/07 00:32:56;;;;;;;10.63;5.90;;;;;;;;;;4974808;28;20069;-84
2022/08/07 00:35:27;;;;;;;11.00;6.20;;;;;;;;;;4953647;28;20078;-84
2022/08/07 00:38:02;;;;;;;11.82;6.80;;;;;;;;;;4975070;28;20047;-90
2022/08/07 00:40:30;;;;;;;9.63;5.95;;;;;;;;;;4974144;28;20055;-90
2022/08/07 00:43:10;;;;;;;12.18;6.47;;;;;;;;;;4953894;28;20054;-90
2022/08/07 00:45:59;;;;;;;11.57;6.47;;;;;;;;;;4960451;28;20077;-84
2022/08/07 00:48:30;;;;;;;10.45;6.57;;;;;;;;;;4959244;28;20051;-90
2022/08/07 00:51:21;;;;;;;9.90;6.05;;;;;;;;;;4956371;28;20045;-90
2022/08/07 00:54:11;;;;;;;11.27;5.82;;;;;;;;;;4959131;28;20065;-90
2022/08/07 00:56:40;;;;;;;10.77;6.07;;;;;;;;;;4975748;28;20080;-90
2022/08/07 00:59:33;;;;;;;10.85;6.50;;;;;;;;;;4976364;28;20130;-90
2022/08/07 01:02:07;;;;;;;12.43;5.78;;;;;;;;;;4959473;28;20058;-90
2022/08/07 01:04:57;;;;;;;9.75;5.80;;;;;;;;;;4975785;28;20046;-90
2022/08/07 01:07:49;;;;;;;11.02;6.13;;;;;;;;;;4961794;28;20129;-90
2022/08/07 01:10:41;;;;;;;10.35;5.78;;;;;;;;;;4961117;28;20145;-90
2022/08/07 01:13:23;;;;;;;12.65;6.60;;;;;;;;;;4959479;28;20472;-90
2022/08/07 01:15:57;;;;;;;10.65;6.03;;;;;;;;;;4958921;28;20042;-90
2022/08/07 01:18:42;;;;;;;11.25;5.68;;;;;;;;;;4958538;28;20093;-90
2022/08/07 01:21:16;;;;;;;10.13;5.63;;;;;;;;;;4942796;28;20069;-90
2022/08/07 01:24:08;;;;;;;9.88;5.65;;;;;;;;;;4964889;28;20042;-90
2022/08/07 01:27:01;;;;;;;10.93;6.63;;;;;;;;;;4967321;28;20043;-84
2022/08/07 01:29:55;;;;;;;14.70;5.93;;;;;;;;;;4973224;28;20050;-84
2022/08/07 01:32:24;;;;;;;11.98;6.38;;;;;;;;;;4964360;28;20063;-84
2022/08/07 01:34:59;;;;;;;10.55;6.30;;;;;;;;;;4945081;28;20059;-84
2022/08/07 01:37:29;;;;;;;12.05;6.18;;;;;;;;;;4969415;28;21054;-90
2022/08/07 01:40:28;;;;;;;11.40;7.10;;;;;;;;;;4975160;28;20102;-90
2022/08/07 01:42:59;;;;;;;10.20;5.78;;;;;;;;;;4933665;28;20066;-90
2022/08/07 01:45:53;;;;;;;11.75;6.22;;;;;;;;;;4957317;28;20096;-90
2022/08/07 01:48:49;;;;;;;11.50;6.13;;;;;;;;;;4957736;28;20057;-90
2022/08/07 01:51:29;;;;;;;11.82;6.50;;;;;;;;;;4948715;28;20043;-90
2022/08/07 01:54:26;;;;;;;10.63;6.55;;;;;;;;;;4945107;28;20413;-90
2022/08/07 01:57:19;;;;;;;12.00;7.05;;;;;;;;;;4967918;28;20054;-91
2022/08/07 02:00:11;;;;;;;15.38;7.65;;;;;;;;;;4972808;28;20051;-90
2022/08/07 02:03:13;;;;;;;14.35;7.03;;;;;;;;;;4972640;28;20100;-90
2022/08/07 02:06:03;;;;;;;14.55;7.25;;;;;;;;;;4941737;28;20069;-90
2022/08/07 02:09:03;;;;;;;11.98;7.22;;;;;;;;;;4943804;28;20070;-84
2022/08/07 02:11:37;;;;;;;12.77;7.45;;;;;;;;;;4956839;28;20497;-84
2022/08/07 02:14:27;;;;;;;12.85;6.90;;;;;;;;;;4953910;28;20109;-83
2022/08/07 02:17:18;;;;;;;11.63;6.30;;;;;;;;;;4972428;28;20046;-84
2022/08/07 02:20:06;;;;;;;12.05;6.65;;;;;;;;;;4958238;28;20058;-84
2022/08/07 02:22:45;;;;;;;10.75;6.20;;;;;;;;;;4957725;28;20062;-84
2022/08/07 02:25:39;;;;;;;12.65;7.10;;;;;;;;;;4956610;28;20493;-84
2022/08/07 02:28:35;;;;;;;11.05;6.63;;;;;;;;;;4958455;28;20061;-84
2022/08/07 02:31:09;;;;;;;11.38;6.60;;;;;;;;;;4950568;28;20420;-83
2022/08/07 02:33:57;;;;;;;10.73;6.20;;;;;;;;;;4948085;28;20055;-83
2022/08/07 02:36:57;;;;;;;10.25;5.95;;;;;;;;;;4973516;28;20043;-83
2022/08/07 02:39:44;;;;;;;11.10;6.72;;;;;;;;;;4938534;28;20066;-84
2022/08/07 02:43:02;;;;;;;13.27;7.32;;;;;;;;;;4974110;28;20050;-84
2022/08/07 02:45:57;;;;;;;12.10;6.65;;;;;;;;;;4950726;28;20066;-89
2022/08/07 02:48:30;;;;;;;10.63;5.85;;;;;;;;;;4955661;28;20058;-84
2022/08/07 02:51:05;;;;;;;11.70;6.55;;;;;;;;;;4972523;28;20054;-84
2022/08/07 02:53:37;;;;;;;12.02;6.45;;;;;;;;;;4949059;28;20051;-84
2022/08/07 02:56:18;;;;;;;15.05;7.80;;;;;;;;;;4948967;28;20057;-84
2022/08/07 02:58:50;;;;;;;14.15;6.55;;;;;;;;;;4955412;28;20055;-84
2022/08/07 03:01:23;;;;;;;11.63;6.50;;;;;;;;;;4970687;28;20047;-84
2022/08/07 03:04:14;;;;;;;9.65;6.05;;;;;;;;;;4947379;28;20062;-84
2022/08/07 03:06:46;;;;;;;12.40;6.43;;;;;;;;;;4970006;28;20054;-90
2022/08/07 03:09:17;;;;;;;10.40;5.70;;;;;;;;;;4963208;28;20054;-90
2022/08/07 03:12:10;;;;;;;10.93;5.78;;;;;;;;;;4970558;28;20130;-90
2022/08/07 03:15:08;;;;;;;9.55;5.85;;;;;;;;;;4937879;28;20054;-90
2022/08/07 03:17:44;;;;;;;11.55;5.75;;;;;;;;;;4946624;28;20086;-90
2022/08/07 03:20:26;;;;;;;12.48;6.28;;;;;;;;;;4955999;28;20043;-90
2022/08/07 03:22:54;;;;;;;10.70;6.03;;;;;;;;;;4955153;28;20110;-90
2022/08/07 03:25:28;;;;;;;13.80;6.10;;;;;;;;;;4965943;28;20141;-90
2022/08/07 03:28:34;;;;;;;9.90;6.20;;;;;;;;;;4971733;28;20054;-90
2022/08/07 03:31:18;;;;;;;9.63;5.22;;;;;;;;;;4964183;28;20062;-90
2022/08/07 03:37:17;;;;;;;10.68;5.72;;;;;;;;;;4972776;28;20042;-84
2022/08/07 03:39:48;;;;;;;9.95;5.75;;;;;;;;;;4955672;28;20142;-83
2022/08/07 03:42:42;;;;;;;13.57;6.53;;;;;;;;;;4958513;28;20046;-83
2022/08/07 03:45:12;;;;;;;11.05;5.85;;;;;;;;;;4951364;28;20054;-84
2022/08/07 03:48:03;;;;;;;9.50;5.00;;;;;;;;;;4966381;28;20154;-90
2022/08/07 03:50:37;;;;;;;11.25;5.50;;;;;;;;;;4939197;28;20051;-90
2022/08/07 03:53:10;;;;;;;10.40;5.55;;;;;;;;;;4959758;28;20046;-90
2022/08/07 03:55:41;;;;;;;8.95;5.28;;;;;;;;;;4959229;28;20085;-90
2022/08/07 03:58:58;;;;;;;10.07;5.38;;;;;;;;;;4968353;28;20054;-90
2022/08/07 04:01:48;;;;;;;9.70;5.03;;;;;;;;;;4958622;28;20130;-90
2022/08/07 04:04:21;;;;;;;9.95;5.70;;;;;;;;;;4968524;28;20093;-89
2022/08/07 04:06:56;;;;;;;9.93;5.32;;;;;;;;;;4976862;28;20043;-89
2022/08/07 04:09:52;;;;;;;9.38;5.88;;;;;;;;;;4964491;28;20046;-90
2022/08/07 04:15:19;;;;;;;10.93;5.50;;;;;;;;;;4959460;28;20125;-90
2022/08/07 04:17:49;;;;;;;10.88;5.40;;;;;;;;;;4936240;28;20059;-90
2022/08/07 04:20:42;;;;;;;9.35;5.40;;;;;;;;;;4946615;28;20038;-90
2022/08/07 04:23:21;;;;;;;10.13;5.07;;;;;;;;;;4959858;28;20519;-90
2022/08/07 04:26:09;;;;;;;10.30;5.10;;;;;;;;;;4969531;28;20054;-85
2022/08/07 04:28:38;;;;;;;10.73;5.10;;;;;;;;;;4968698;28;20133;-84
2022/08/07 04:31:10;;;;;;;11.50;5.78;;;;;;;;;;4938478;28;20142;-84
2022/08/07 04:33:48;;;;;;;10.13;5.63;;;;;;;;;;4975441;28;20055;-84
2022/08/07 04:36:23;;;;;;;10.60;5.75;;;;;;;;;;4959323;28;20086;-90
2022/08/07 04:38:57;;;;;;;11.07;6.00;;;;;;;;;;4960706;28;20378;-90
2022/08/07 04:41:25;;;;;;;9.80;5.00;;;;;;;;;;4952139;28;20047;-90
2022/08/07 04:44:04;;;;;;;9.05;5.75;;;;;;;;;;4953524;28;20047;-90
2022/08/07 04:47:02;;;;;;;11.10;5.05;;;;;;;;;;4958018;28;20047;-90
2022/08/07 04:49:51;;;;;;;9.27;5.00;;;;;;;;;;4950395;28;20055;-90
2022/08/07 04:52:58;;;;;;;11.23;5.82;;;;;;;;;;4953607;28;20665;-90
2022/08/07 04:55:33;;;;;;;10.65;5.75;;;;;;;;;;4959744;28;20047;-90
2022/08/07 04:59:20;;;;;;;11.50;5.80;;;;;;;;;;4959820;28;20539;-83
2022/08/07 05:02:22;;;;;;;15.18;5.75;;;;;;;;;;4950732;28;20481;-84
2022/08/07 05:05:35;;;;;;;10.43;5.57;;;;;;;;;;4968797;28;20053;-84
2022/08/07 05:08:44;;;;;;;10.73;5.40;;;;;;;;;;4974957;28;20054;-90
2022/08/07 05:11:35;;;;;;;12.20;5.97;;;;;;;;;;4968557;28;20145;-90
2022/08/07 05:17:34;;;;;;;11.50;5.72;;;;;;;;;;4959917;28;20074;-84
2022/08/07 05:20:48;;;;;;;13.45;6.18;;;;;;;;;;4975024;28;20043;-84
2022/08/07 05:23:48;;;;;;;10.77;5.80;;;;;;;;;;4970902;28;20049;-84
2022/08/07 05:26:26;;;;;;;13.50;6.45;;;;;;;;;;4972958;28;20043;-85
2022/08/07 05:29:07;;;;;;;13.95;7.10;;;;;;;;;;4929310;28;20524;-90
2022/08/07 05:32:00;;;;;;;13.98;6.55;;;;;;;;;;4956980;28;20058;-90
2022/08/07 05:34:41;;;;;;;16.25;6.80;;;;;;;;;;4974172;28;20043;-90
2022/08/07 05:37:10;;;;;;;12.43;6.93;;;;;;;;;;4952198;28;20489;-90
2022/08/07 05:39:59;;;;;;;17.02;6.90;;;;;;;;;;4945184;28;20062;-90
2022/08/07 05:42:49;;;;;;;14.50;6.95;;;;;;;;;;4970325;28;20117;-90
2022/08/07 05:45:24;;;;;;;13.98;7.07;;;;;;;;;;4972391;28;20062;-90
2022/08/07 05:48:12;;;;;;;13.73;7.15;;;;;;;;;;4974970;28;20109;-84
2022/08/07 05:50:44;;;;;;;14.57;7.32;;;;;;;;;;4952723;28;20057;-84
2022/08/07 05:53:37;;;;;;;15.52;7.00;;;;;;;;;;4974239;28;20039;-84
2022/08/07 05:56:32;;;;;;;11.20;6.72;;;;;;;;;;4947561;28;20401;-90
2022/08/07 05:59:04;;;;;;;16.02;7.95;;;;;;;;;;4957405;28;20117;-91
2022/08/07 06:01:34;;;;;;;20.10;8.25;;;;;;;;;;4973641;28;20089;-90
2022/08/07 06:04:28;;;;;;;16.95;7.78;;;;;;;;;;4973566;28;20038;-90
2022/08/07 06:07:02;;;;;;;21.50;9.90;;;;;;;;;;4958354;28;20077;-91
2022/08/07 06:09:32;;;;;;;16.77;8.05;;;;;;;;;;4949859;28;20086;-91
2022/08/07 06:12:19;;;;;;;15.75;8.40;;;;;;;;;;4943859;28;20561;-91
2022/08/07 06:15:00;;;;;;;17.52;7.95;;;;;;;;;;4956026;28;20118;-90
2022/08/07 06:17:34;;;;;;;18.23;8.15;;;;;;;;;;4941682;28;20057;-84
2022/08/07 06:20:09;;;;;;;19.05;9.00;;;;;;;;;;4958746;28;20054;-84
2022/08/07 06:22:52;;;;;;;16.60;8.52;;;;;;;;;;4974355;28;20758;-84
2022/08/07 06:25:46;;;;;;;18.63;8.10;;;;;;;;;;4961269;28;20061;-84
2022/08/07 06:28:26;;;;;;;17.15;7.60;;;;;;;;;;4957734;28;20050;-91
2022/08/07 06:31:20;;;;;;;17.30;8.00;;;;;;;;;;4956934;28;20046;-91
2022/08/07 06:34:05;;;;;;;15.98;6.68;;;;;;;;;;4943703;28;20153;-91
2022/08/07 06:36:35;;;;;;;14.07;7.22;;;;;;;;;;4957603;28;20564;-89
2022/08/07 06:39:05;;;;;;;15.45;7.68;;;;;;;;;;4972900;28;20043;-91
2022/08/07 06:42:12;;;;;;;19.30;8.30;;;;;;;;;;4955640;28;20125;-91
2022/08/07 06:45:10;;;;;;;9.50;5.85;;;;;;;;;;4957009;28;20058;-91
2022/08/07 06:47:46;;;;;;;10.27;5.68;;;;;;;;;;4951300;28;20046;-84
2022/08/07 06:50:24;;;;;;;11.07;5.30;;;;;;;;;;4947779;28;20057;-84
2022/08/07 06:53:21;;;;;;;12.90;5.93;;;;;;;;;;4954347;28;20807;-83
2022/08/07 06:56:16;;;;;;;17.10;5.47;;;;;;;;;;4935755;28;20055;-84
2022/08/07 06:58:50;;;;;;;11.00;5.60;;;;;;;;;;4958250;28;20076;-90
2022/08/07 07:01:45;;;;;;;12.32;5.50;;;;;;;;;;4958436;28;20877;-90
2022/08/07 07:04:18;;;;;;;11.52;5.15;;;;;;;;;;4973826;28;20524;-90
2022/08/07 07:07:06;;;;;;;10.65;5.47;;;;;;;;;;4949271;28;20054;-89
2022/08/07 07:09:49;;;;;;;12.32;5.85;;;;;;;;;;4954254;28;20128;-88
2022/08/07 07:12:24;;;;;;;10.18;5.45;;;;;;;;;;4952030;28;20047;-88
2022/08/07 07:15:30;;;;;;;12.75;4.93;;;;;;;;;;4974295;28;20139;-89
2022/08/07 07:18:14;;;;;;;8.68;4.22;;;;;;;;;;4956950;28;20062;-88
2022/08/07 07:21:25;;;;;;;8.32;3.53;;;;;;;;;;4986931;28;20042;-87
2022/08/07 07:24:07;;;;;;;8.93;3.83;;;;;;;;;;4971383;28;20187;-87
2022/08/07 07:26:43;;;;;;;9.32;3.28;;;;;;;;;;4967244;28;20102;-87
2022/08/07 07:29:23;;;;;;;7.00;3.38;;;;;;;;;;4977235;28;20038;-86
2022/08/07 07:32:16;;;;;;;5.85;3.70;;;;;;;;;;4953560;28;20764;-89
2022/08/07 07:34:50;;;;;;;7.28;3.70;;;;;;;;;;4976823;28;20113;-90
2022/08/07 07:37:19;;;;;;;8.35;4.10;;;;;;;;;;4975986;28;20146;-84
2022/08/07 07:40:40;;;;;;;8.70;3.60;;;;;;;;;;4977042;28;20525;-84
2022/08/07 07:43:09;;;;;;;10.13;3.90;;;;;;;;;;4976550;28;20062;-84
2022/08/07 07:45:44;;;;;;;7.88;4.00;;;;;;;;;;4974673;28;20053;-83
2022/08/07 07:48:32;;;;;;;7.55;4.30;;;;;;;;;;4944140;28;20054;-90
2022/08/07 07:51:05;;;;;;;8.65;4.00;;;;;;;;;;4976731;28;20050;-90
2022/08/07 07:54:00;;;;;;;7.03;4.38;;;;;;;;;;4976141;28;20077;-90
2022/08/07 07:56:31;;;;;;;6.63;3.97;;;;;;;;;;4953158;28;20067;-89
2022/08/07 07:59:01;;;;;;;8.55;4.25;;;;;;;;;;4974653;28;20058;-84
2022/08/07 08:01:36;;;;;;;5.80;3.42;;;;;;;;;;4968552;28;20102;-84
2022/08/07 08:04:26;;;;;;;9.25;3.17;;;;;;;;;;4975268;28;20046;-84
2022/08/07 08:07:00;;;;;;;7.13;3.33;;;;;;;;;;4967867;28;20070;-89
2022/08/07 08:09:35;;;;;;;8.48;3.80;;;;;;;;;;4978372;28;20061;-90
2022/08/07 08:12:29;;;;;;;8.45;3.42;;;;;;;;;;4957950;28;20497;-90
2022/08/07 08:15:22;;;;;;;8.10;3.30;;;;;;;;;;4973754;28;20059;-90
2022/08/07 08:17:50;;;;;;;6.60;3.35;;;;;;;;;;4974536;28;20106;-90
2022/08/07 08:20:31;;;;;;;5.43;3.13;;;;;;;;;;4944843;28;20074;-90
2022/08/07 08:29:02;;;;;;;6.85;3.70;;;;;;;;;;4903388;29;20171;-84
2022/08/07 08:31:57;;;;;;;7.85;3.95;;;;;;;;;;4921162;29;20040;-84
2022/08/07 08:34:47;;;;;;;6.43;3.67;;;;;;;;;;4933129;29;20052;-84
2022/08/07 08:37:18;;;;;;;5.63;3.17;;;;;;;;;;4941734;29;20553;-91
2022/08/07 08:40:14;;;;;;;7.88;3.58;;;;;;;;;;4934097;29;20083;-91
2022/08/07 08:43:09;;;;;;;8.40;3.20;;;;;;;;;;4933722;29;20044;-90
2022/08/07 08:46:25;;;;;;;5.38;2.75;;;;;;;;;;4934790;29;20074;-91
2022/08/07 08:49:07;;;;;;;6.03;3.43;;;;;;;;;;4933236;29;20067;-91
2022/08/07 08:51:51;;;;;;;7.07;2.85;;;;;;;;;;4935063;29;20315;-91
2022/08/07 08:54:54;;;;;;;7.32;3.95;;;;;;;;;;4932576;29;20584;-90
2022/08/07 08:57:31;;;;;;;6.97;3.10;;;;;;;;;;4932490;29;20139;-85
2022/08/07 09:00:27;;;;;;;5.45;2.72;;;;;;;;;;4940016;28;20043;-85
2022/08/07 09:03:33;;;;;;;5.00;2.70;;;;;;;;;;4979766;28;20054;-85
2022/08/07 09:06:32;;;;;;;;;;;;;;;;;;4975119;28;20141;-85
2022/08/07 09:09:10;;;;;;;5.05;2.60;;;;;;;;;;4973357;28;20427;-85
2022/08/07 09:12:00;;;;;;;6.65;3.03;;;;;;;;;;4959209;28;20093;-85
2022/08/07 09:15:18;;;;;;;5.60;2.75;;;;;;;;;;4975182;28;20042;-85
2022/08/07 09:18:06;;;;;;;5.93;3.30;;;;;;;;;;4958610;28;20393;-85
2022/08/07 09:20:44;;;;;;;7.30;3.00;;;;;;;;;;4975499;28;20066;-85
2022/08/07 09:23:35;;;;;;;8.98;2.85;;;;;;;;;;4972116;28;20054;-85
2022/08/07 09:26:44;;;;;;;4.63;2.88;;;;;;;;;;4972086;28;20039;-91
2022/08/07 09:29:31;;;;;;;5.13;2.90;;;;;;;;;;4956893;28;20054;-85
2022/08/07 09:32:25;;;;;;;5.10;2.88;;;;;;;;;;4975802;28;20050;-85
2022/08/07 09:35:07;;;;;;;6.53;4.05;;;;;;;;;;4974664;28;20086;-85
2022/08/07 09:38:48;;;;;;;8.90;3.30;;;;;;;;;;4957910;28;20058;-92
2022/08/07 09:42:15;;;;;;;6.35;3.20;;;;;;;;;;4972640;28;20039;-91
2022/08/07 09:45:01;;;;;;;6.13;2.92;;;;;;;;;;4973911;28;20046;-91
2022/08/07 09:48:04;;;;;;;4.68;2.83;;;;;;;;;;4954902;28;20417;-84
2022/08/07 09:51:30;;;;;;;4.82;2.85;;;;;;;;;;4960393;28;20054;-84
2022/08/07 09:54:23;;;;;;;6.85;3.20;;;;;;;;;;4956833;28;20832;-84
2022/08/07 09:57:30;;;;;;;6.13;3.00;;;;;;;;;;4963794;28;20054;-85
2022/08/07 10:01:06;;;;;;;4.65;2.78;;;;;;;;;;4960568;28;20798;-85
2022/08/07 10:04:27;;;;;;;5.85;3.05;;;;;;;;;;4973794;28;20078;-84
2022/08/07 10:07:30;;;;;;;4.32;2.83;;;;;;;;;;4965013;28;20058;-85
2022/08/07 10:10:39;;;;;;;5.40;3.38;;;;;;;;;;4974592;28;20074;-85
2022/08/07 10:13:57;;;;;;;6.57;3.28;;;;;;;;;;4973244;28;20049;-85
2022/08/07 10:20:46;;;;;;;5.28;2.90;;;;;;;;;;4972991;28;20058;-90
2022/08/07 10:23:46;;;;;;;4.78;2.55;;;;;;;;;;4971909;28;20444;-91
2022/08/07 10:27:04;;;;;;;4.63;2.60;;;;;;;;;;4964310;28;20051;-86
2022/08/07 10:30:04;;;;;;;4.60;2.60;;;;;;;;;;4956090;28;20823;-85
2022/08/07 10:32:55;;;;;;;5.20;2.65;;;;;;;;;;4963186;28;20230;-86
2022/08/07 10:35:47;;;;;;;4.30;2.80;;;;;;;;;;4969907;28;20153;-87
2022/08/07 10:38:29;;;;;;;5.93;2.90;;;;;;;;;;4948303;28;20055;-91
2022/08/07 10:41:45;;;;;;;4.18;2.22;;;;;;;;;;4926249;29;20608;-90
2022/08/07 10:44:55;;;;;;;4.32;2.83;;;;;;;;;;4954505;28;20051;-90
2022/08/07 10:48:21;;;;;;;9.52;2.78;;;;;;;;;;4966755;28;20058;-91
2022/08/07 10:51:10;;;;;;;5.40;2.63;;;;;;;;;;4968407;28;20058;-92
2022/08/07 10:54:34;;;;;;;7.03;2.60;;;;;;;;;;4954735;28;20051;-92
2022/08/07 10:57:14;;;;;;;5.50;2.65;;;;;;;;;;4945878;28;20497;-92
2022/08/07 11:00:08;;;;;;;4.85;2.80;;;;;;;;;;4961951;28;20097;-92
2022/08/07 11:03:15;;;;;;;4.47;2.40;;;;;;;;;;4973133;28;20039;-91
2022/08/07 11:06:21;;;;;;;4.05;2.67;;;;;;;;;;4984131;28;20054;-92
2022/08/07 11:09:02;;;;;;;6.13;3.05;;;;;;;;;;4959639;28;20102;-92
2022/08/07 11:11:55;;;;;;;6.32;3.38;;;;;;;;;;4959212;28;20046;-92
2022/08/07 11:14:40;;;;;;;4.85;2.80;;;;;;;;;;4973723;28;20484;-92
2022/08/07 11:17:59;;;;;;;5.15;2.40;;;;;;;;;;4970421;28;20110;-92
2022/08/07 11:20:59;;;;;;;4.60;2.75;;;;;;;;;;4955856;29;20510;-92
2022/08/07 11:23:49;;;;;;;3.60;2.47;;;;;;;;;;4955861;29;20055;-92
2022/08/07 11:26:30;;;;;;;5.15;2.95;;;;;;;;;;4959463;28;20101;-87
2022/08/07 11:29:05;;;;;;;5.25;2.80;;;;;;;;;;4965568;28;20055;-86
2022/08/07 11:32:21;;;;;;;4.90;2.85;;;;;;;;;;4973372;28;20058;-86
2022/08/07 11:35:43;;;;;;;5.63;2.60;;;;;;;;;;4971987;28;20051;-86
2022/08/07 11:38:50;;;;;;;;;;;;;;;;;;4958692;28;20138;-86
2022/08/07 11:41:38;;;;;;;6.60;2.40;;;;;;;;;;4972275;28;20479;-86
2022/08/07 11:44:36;;;;;;;;;;;;;;;;;;4972929;28;20113;-86
2022/08/07 11:47:19;;;;;;;7.13;2.70;;;;;;;;;;4973828;28;19946;-92
2022/08/07 11:51:02;;;;;;;7.85;2.88;;;;;;;;;;4927264;29;20055;-92
2022/08/07 11:53:51;;;;;;;4.78;2.72;;;;;;;;;;4881625;29;20094;-92
2022/08/07 11:56:49;;;;;;;6.30;3.08;;;;;;;;;;4884901;29;20067;-87
2022/08/07 11:59:54;;;;;;;4.95;2.67;;;;;;;;;;4901248;29;20056;-92
2022/08/07 12:03:05;;;;;;;3.78;2.35;;;;;;;;;;4896302;29;20052;-92
2022/08/07 12:05:56;;;;;;;4.40;2.83;;;;;;;;;;4907784;29;20060;-92
2022/08/07 12:08:29;;;;;;;5.85;2.88;;;;;;;;;;4885568;29;20052;-91
2022/08/07 12:11:48;;;;;;;5.28;2.42;;;;;;;;;;4914575;29;20073;-89
2022/08/07 12:15:14;;;;;;;5.18;2.55;;;;;;;;;;4848562;29;20058;-88
2022/08/07 12:18:18;;;;;;;4.20;2.30;;;;;;;;;;4849624;29;20049;-89
2022/08/07 12:21:20;;;;;;;4.15;2.28;;;;;;;;;;4849079;29;20138;-89
2022/08/07 12:24:13;;;;;;;4.43;2.63;;;;;;;;;;4843246;29;21102;-89
2022/08/07 12:27:17;;;;;;;4.20;2.20;;;;;;;;;;4848993;29;20079;-89
2022/08/07 12:30:05;;;;;;;5.00;2.67;;;;;;;;;;4876978;29;20120;-89
2022/08/07 12:32:41;;;;;;;11.85;5.35;;;;;;;;;;4887037;29;20419;-89
2022/08/07 12:35:12;;;;;;;6.82;2.92;;;;;;;;;;4884053;29;20069;-89
2022/08/07 12:37:42;;;;;;;5.75;3.17;;;;;;;;;;4876918;29;20057;-83
2022/08/07 12:40:38;;;;;;;6.38;3.20;;;;;;;;;;4868523;29;20063;-84
2022/08/07 12:43:19;;;;;;;5.00;2.70;;;;;;;;;;4885175;29;20061;-83
2022/08/07 12:47:02;;;;;;;5.45;2.80;;;;;;;;;;4880162;29;20061;-84
2022/08/07 12:49:55;;;;;;;4.93;2.58;;;;;;;;;;4882006;29;20108;-83
2022/08/07 12:52:40;;;;;;;4.90;2.35;;;;;;;;;;4954509;28;20493;-84
2022/08/07 12:55:26;;;;;;;4.47;2.67;;;;;;;;;;4972303;28;20529;-83
2022/08/07 12:58:44;;;;;;;4.97;2.70;;;;;;;;;;4974418;28;20182;-84
2022/08/07 13:01:28;;;;;;;7.03;2.85;;;;;;;;;;4956820;28;20054;-84
2022/08/07 13:07:46;;;;;;;5.30;2.78;;;;;;;;;;4973817;28;20101;-85
2022/08/07 13:11:11;;;;;;;8.82;2.85;;;;;;;;;;4877669;29;20061;-84
2022/08/07 13:14:00;;;;;;;3.50;2.30;;;;;;;;;;4893015;29;20665;-83
2022/08/07 13:17:11;;;;;;;4.07;2.40;;;;;;;;;;4896419;29;20145;-84
2022/08/07 13:19:51;;;;;;;6.60;2.50;;;;;;;;;;4894357;29;20060;-84
2022/08/07 13:22:29;;;;;;;5.40;2.33;;;;;;;;;;4894706;29;20064;-84
2022/08/07 13:25:02;;;;;;;3.42;2.10;;;;;;;;;;4876294;29;20078;-83
2022/08/07 13:27:39;;;;;;;4.75;2.60;;;;;;;;;;4892394;29;20151;-92
2022/08/07 13:30:59;;;;;;;4.97;2.55;;;;;;;;;;4898466;29;20619;-89
2022/08/07 13:33:51;;;;;;;4.50;2.70;;;;;;;;;;4895179;29;20537;-90
2022/08/07 13:36:53;;;;;;;5.35;3.03;;;;;;;;;;4879842;29;20053;-87
2022/08/07 13:39:47;;;;;;;6.97;2.95;;;;;;;;;;4894821;29;20738;-86
2022/08/07 13:42:37;;;;;;;6.13;2.53;;;;;;;;;;4895082;29;20089;-86
2022/08/07 13:45:07;;;;;;;7.30;2.72;;;;;;;;;;4874239;29;20056;-86
2022/08/07 13:47:57;;;;;;;5.55;2.60;;;;;;;;;;4956847;28;20047;-88
2022/08/07 13:50:39;;;;;;;4.50;3.03;;;;;;;;;;4976131;28;20051;-89
2022/08/07 13:53:37;;;;;;;4.72;2.50;;;;;;;;;;4979167;28;20051;-87
2022/08/07 13:56:32;;;;;;;5.22;2.83;;;;;;;;;;4959187;28;20058;-88
2022/08/07 13:59:23;;;;;;;5.70;2.95;;;;;;;;;;4959355;28;20046;-88
2022/08/07 14:02:07;;;;;;;5.15;2.65;;;;;;;;;;4963028;28;20166;-87
2022/08/07 14:05:06;;;;;;;4.53;2.50;;;;;;;;;;4960972;28;20050;-88
2022/08/07 14:07:44;;;;;;;5.22;2.75;;;;;;;;;;4960676;28;20054;-86
2022/08/07 14:10:37;;;;;;;3.88;2.35;;;;;;;;;;4942279;28;20137;-85
2022/08/07 14:13:17;;;;;;;5.75;2.72;;;;;;;;;;4974262;28;20059;-89
2022/08/07 14:16:16;;;;;;;4.43;2.85;;;;;;;;;;4964497;28;20130;-92
2022/08/07 14:18:53;;;;;;;5.18;2.83;;;;;;;;;;4966404;28;20145;-90
2022/08/07 14:21:28;;;;;;;4.93;2.70;;;;;;;;;;4966580;28;20047;-90
2022/08/07 14:24:26;;;;;;;4.40;2.80;;;;;;;;;;4956667;28;20047;-93
2022/08/07 14:27:04;;;;;;;4.05;2.63;;;;;;;;;;4973988;28;20146;-87
2022/08/07 14:30:03;;;;;;;6.68;2.90;;;;;;;;;;4972776;28;20054;-87
2022/08/07 14:33:00;;;;;;;6.47;2.78;;;;;;;;;;4973077;28;20043;-87
2022/08/07 14:35:35;;;;;;;5.18;2.92;;;;;;;;;;4957116;28;20077;-87
2022/08/07 14:38:14;;;;;;;4.57;2.72;;;;;;;;;;4976064;28;20493;-87
2022/08/07 14:41:26;;;;;;;5.55;2.67;;;;;;;;;;4977150;28;20070;-90
2022/08/07 14:44:51;;;;;;;4.65;2.83;;;;;;;;;;4967354;28;20481;-91
2022/08/07 14:47:22;;;;;;;3.90;2.47;;;;;;;;;;4940319;28;20141;-87
2022/08/07 14:49:58;;;;;;;4.97;2.47;;;;;;;;;;4973803;28;20054;-86
2022/08/07 14:52:32;;;;;;;3.60;2.00;;;;;;;;;;4970120;28;20393;-87
2022/08/07 14:55:30;;;;;;;4.88;2.60;;;;;;;;;;4961212;28;20556;-89
2022/08/07 14:58:02;;;;;;;4.50;2.38;;;;;;;;;;4957962;28;20050;-93
2022/08/07 15:00:33;;;;;;;4.78;2.03;;;;;;;;;;4955469;28;20070;-88
2022/08/07 15:03:29;;;;;;;6.45;2.53;;;;;;;;;;4973651;28;20054;-92
2022/08/07 15:06:23;;;;;;;3.80;2.30;;;;;;;;;;4977237;28;20046;-89
2022/08/07 15:09:10;;;;;;;5.45;2.80;;;;;;;;;;4940483;28;20051;-90
2022/08/07 15:12:06;;;;;;;4.95;2.50;;;;;;;;;;4973926;28;20074;-95
2022/08/07 15:15:07;;;;;;;3.95;2.22;;;;;;;;;;4966939;28;20509;-96
2022/08/07 15:17:39;;;;;;;4.45;2.17;;;;;;;;;;4935516;28;20051;-96
2022/08/07 15:20:26;;;;;;;7.50;2.53;;;;;;;;;;4972433;28;20059;-95
2022/08/07 15:23:11;;;;;;;5.95;2.92;;;;;;;;;;4966575;28;20057;-96
2022/08/07 15:26:34;;;;;;;5.20;2.20;;;;;;;;;;4971095;28;20048;-96
2022/08/07 15:29:08;;;;;;;5.47;2.30;;;;;;;;;;4953177;28;20050;-95
2022/08/07 15:32:01;;;;;;;3.50;2.10;;;;;;;;;;4945334;28;20059;-96
2022/08/07 15:34:56;;;;;;;4.63;2.63;;;;;;;;;;4958867;28;20065;-96
2022/08/07 15:37:32;;;;;;;4.10;2.38;;;;;;;;;;4963758;28;20081;-87
2022/08/07 15:40:29;;;;;;;6.32;2.60;;;;;;;;;;4960304;28;20512;-90
2022/08/07 15:43:22;;;;;;;5.78;2.50;;;;;;;;;;4964850;28;20051;-90
2022/08/07 15:46:26;;;;;;;3.97;2.20;;;;;;;;;;4978914;28;20051;-93
2022/08/07 15:49:11;;;;;;;5.90;2.55;;;;;;;;;;4961856;28;20065;-95
2022/08/07 15:52:09;;;;;;;6.32;3.25;;;;;;;;;;4977919;28;20042;-91
2022/08/07 15:55:08;;;;;;;7.30;2.72;;;;;;;;;;4947598;28;20133;-96
2022/08/07 15:57:40;;;;;;;5.90;2.40;;;;;;;;;;4962673;28;20490;-87
2022/08/07 16:00:24;;;;;;;6.38;2.88;;;;;;;;;;4959543;28;20074;-87
2022/08/07 16:03:12;;;;;;;4.95;2.58;;;;;;;;;;4961171;28;20137;-87
2022/08/07 16:06:07;;;;;;;3.80;2.50;;;;;;;;;;4968931;28;20572;-94
2022/08/07 16:08:41;;;;;;;4.22;2.63;;;;;;;;;;4957406;28;20038;-93
2022/08/07 16:11:41;;;;;;;3.45;2.35;;;;;;;;;;4961159;28;20059;-95
2022/08/07 16:15:05;;;;;;;4.53;2.40;;;;;;;;;;4887080;29;20064;-94
2022/08/07 16:17:48;;;;;;;4.80;2.03;;;;;;;;;;4896036;29;20499;-94
2022/08/07 16:21:07;;;;;;;4.38;2.55;;;;;;;;;;4894903;29;20052;-94
2022/08/07 16:23:55;;;;;;;3.97;2.30;;;;;;;;;;4895283;29;20055;-94
2022/08/07 16:27:01;;;;;;;4.35;2.38;;;;;;;;;;4884504;29;20059;-88
2022/08/07 16:30:04;;;;;;;4.10;2.67;;;;;;;;;;4860672;29;20067;-94
2022/08/07 16:33:22;;;;;;;4.00;2.28;;;;;;;;;;4857098;29;20098;-94
2022/08/07 16:36:43;;;;;;;4.53;2.88;;;;;;;;;;4826569;29;20144;-92
2022/08/07 16:39:39;;;;;;;3.38;2.17;;;;;;;;;;4858183;29;20054;-86
2022/08/07 16:43:03;;;;;;;4.88;2.22;;;;;;;;;;4830218;29;20060;-86
2022/08/07 16:45:56;;;;;;;6.45;2.10;;;;;;;;;;4858074;29;20128;-86
2022/08/07 16:49:03;;;;;;;4.65;2.30;;;;;;;;;;4860163;29;20062;-94
2022/08/07 16:52:02;;;;;;;4.07;2.53;;;;;;;;;;4904666;29;20056;-94
2022/08/07 16:55:16;;;;;;;4.65;2.20;;;;;;;;;;4898387;29;20539;-94
2022/08/07 16:58:00;;;;;;;4.20;2.50;;;;;;;;;;4915540;29;20088;-94
2022/08/07 17:00:58;;;;;;;6.55;2.67;;;;;;;;;;4904535;29;20059;-94
2022/08/07 17:04:17;;;;;;;4.50;2.30;;;;;;;;;;4923657;29;20047;-94
2022/08/07 17:07:11;;;;;;;4.00;2.40;;;;;;;;;;4959415;28;20051;-85
2022/08/07 17:10:04;;;;;;;7.50;2.55;;;;;;;;;;4975939;28;20060;-86
2022/08/07 17:13:03;;;;;;;5.22;2.25;;;;;;;;;;4958723;28;20964;-86
2022/08/07 17:15:42;;;;;;;4.22;2.40;;;;;;;;;;4876737;29;20084;-86